Time;durP1;ratioP1;P1;durP2;ratioP2;P2;SDS_P1;SDS_P2;PMS_P1;PMS_P2;Temp;Humidity;BMP_temperature;BMP_pressure;BME280_temperature;BME280_humidity;BME280_pressure;Samples;Min_cycle;Max_cycle;Signal;HPM_P1;HPM_P2
2021/06/27 00:01:01;;;;;;;2.70;2.10;;;17.00;99.90;;;;;;5029214;28;19961;-72
2021/06/27 00:03:26;;;;;;;2.85;2.35;;;17.00;99.90;;;;;;5029851;28;20537;-72
2021/06/27 00:05:52;;;;;;;2.65;2.33;;;16.90;99.90;;;;;;5030148;28;20131;-74
2021/06/27 00:08:17;;;;;;;4.60;2.80;;;16.80;99.90;;;;;;5012241;28;20181;-73
2021/06/27 00:10:44;;;;;;;3.53;2.50;;;16.80;99.90;;;;;;5021181;28;20074;-73
2021/06/27 00:13:11;;;;;;;4.05;2.38;;;16.70;99.90;;;;;;5030747;28;20764;-73
2021/06/27 00:15:40;;;;;;;3.45;2.55;;;16.80;99.90;;;;;;5030965;28;20094;-72
2021/06/27 00:18:08;;;;;;;4.93;2.45;;;16.70;99.90;;;;;;5011072;28;20180;-74
2021/06/27 00:20:35;;;;;;;2.88;2.67;;;16.70;99.90;;;;;;5029402;28;21119;-72
2021/06/27 00:23:01;;;;;;;3.65;2.50;;;16.60;99.90;;;;;;5014892;28;20084;-72
2021/06/27 00:25:29;;;;;;;3.15;2.80;;;16.60;99.90;;;;;;5010554;28;20070;-73
2021/06/27 00:27:56;;;;;;;3.13;2.40;;;16.60;99.90;;;;;;5024627;28;20121;-72
2021/06/27 00:30:24;;;;;;;2.67;2.47;;;16.60;99.90;;;;;;5030046;28;20085;-72
2021/06/27 00:32:50;;;;;;;2.97;2.67;;;16.50;99.90;;;;;;5028913;28;20084;-72
2021/06/27 00:35:17;;;;;;;4.55;2.85;;;16.50;99.90;;;;;;5023005;28;20066;-73
2021/06/27 00:37:44;;;;;;;4.20;2.40;;;16.50;99.90;;;;;;5007065;28;20169;-73
2021/06/27 00:40:12;;;;;;;3.10;2.70;;;16.50;99.90;;;;;;5029336;28;20074;-73
2021/06/27 00:42:39;;;;;;;2.92;2.20;;;16.40;99.90;;;;;;5029274;28;20176;-72
2021/06/27 00:45:07;;;;;;;3.88;2.75;;;16.50;99.90;;;;;;5030647;28;20156;-73
2021/06/27 00:47:35;;;;;;;2.17;1.98;;;16.40;99.90;;;;;;5019635;28;20110;-74
2021/06/27 00:50:02;;;;;;;2.58;2.38;;;16.40;99.90;;;;;;5028569;28;20085;-73
2021/06/27 00:52:28;;;;;;;4.40;2.20;;;16.20;99.90;;;;;;5027005;28;20104;-72
2021/06/27 00:54:53;;;;;;;3.30;2.50;;;16.20;99.90;;;;;;5022726;28;20457;-72
2021/06/27 00:57:19;;;;;;;2.50;2.30;;;16.20;99.90;;;;;;5025776;28;20102;-72
2021/06/27 00:59:45;;;;;;;3.53;2.33;;;16.30;99.90;;;;;;5010230;28;20066;-74
2021/06/27 01:02:11;;;;;;;4.70;2.50;;;16.30;99.90;;;;;;5027339;28;20123;-72
2021/06/27 01:04:38;;;;;;;4.88;2.45;;;16.30;99.90;;;;;;5010993;28;20081;-72
2021/06/27 01:07:05;;;;;;;3.45;2.20;;;16.30;99.90;;;;;;5024680;28;20089;-72
2021/06/27 01:09:31;;;;;;;3.28;2.20;;;16.30;99.90;;;;;;5010717;28;20454;-72
2021/06/27 01:11:58;;;;;;;2.50;2.30;;;16.30;99.90;;;;;;5022655;28;20082;-73
2021/06/27 01:14:24;;;;;;;4.57;2.53;;;16.30;99.90;;;;;;5017363;28;20164;-72
2021/06/27 01:16:49;;;;;;;2.22;2.03;;;16.10;99.90;;;;;;5024823;28;20247;-74
2021/06/27 01:19:15;;;;;;;2.80;2.00;;;16.10;99.90;;;;;;5002116;28;20074;-72
2021/06/27 01:21:42;;;;;;;2.47;2.20;;;16.10;99.90;;;;;;5026079;28;20147;-72
2021/06/27 01:24:08;;;;;;;3.65;2.28;;;16.10;99.90;;;;;;5029375;28;20070;-72
2021/06/27 01:26:33;;;;;;;4.10;1.92;;;16.00;99.90;;;;;;5021541;28;20088;-72
2021/06/27 01:28:59;;;;;;;2.25;2.00;;;16.00;99.90;;;;;;5019788;28;20585;-72
2021/06/27 01:31:26;;;;;;;6.22;2.05;;;16.00;99.90;;;;;;5011985;28;20089;-73
2021/06/27 01:33:53;;;;;;;3.00;2.15;;;16.00;99.90;;;;;;5027805;28;20074;-73
2021/06/27 01:36:19;;;;;;;2.67;1.95;;;15.80;99.90;;;;;;5028143;28;20090;-72
2021/06/27 01:38:45;;;;;;;2.28;2.08;;;15.70;99.90;;;;;;5026603;28;20092;-72
2021/06/27 01:41:10;;;;;;;2.30;2.10;;;15.80;99.90;;;;;;5028715;28;20074;-72
2021/06/27 01:43:36;;;;;;;2.53;2.33;;;15.70;99.90;;;;;;5027131;28;20154;-73
2021/06/27 01:46:02;;;;;;;3.15;2.35;;;15.70;99.90;;;;;;5024379;28;20081;-72
2021/06/27 01:48:32;;;;;;;1.92;1.80;;;15.80;99.90;;;;;;5009343;28;20102;-72
2021/06/27 01:51:00;;;;;;;4.13;2.10;;;15.70;99.90;;;;;;5029435;28;20086;-72
2021/06/27 01:53:30;;;;;;;3.00;1.90;;;15.70;99.90;;;;;;5029795;28;20089;-73
2021/06/27 01:56:07;;;;;;;2.85;1.90;;;15.80;99.90;;;;;;5029616;28;20109;-73
2021/06/27 01:58:45;;;;;;;4.60;2.55;;;15.80;99.90;;;;;;5017838;28;20492;-72
2021/06/27 02:01:17;;;;;;;4.95;2.40;;;15.70;99.90;;;;;;5017136;28;20065;-72
2021/06/27 02:03:44;;;;;;;2.63;1.90;;;15.50;99.90;;;;;;5027999;28;20160;-75
2021/06/27 02:06:10;;;;;;;2.13;1.92;;;15.30;99.90;;;;;;5023810;28;20085;-73
2021/06/27 02:08:38;;;;;;;2.47;2.28;;;15.30;99.90;;;;;;5006542;28;20498;-72
2021/06/27 02:11:05;;;;;;;2.83;1.88;;;15.30;99.90;;;;;;5027637;28;20086;-73
2021/06/27 02:13:31;;;;;;;2.35;2.10;;;15.40;99.90;;;;;;5026656;28;20078;-72
2021/06/27 02:15:57;;;;;;;2.35;1.50;;;15.50;99.90;;;;;;5025564;28;20163;-73
2021/06/27 02:18:31;;;;;;;2.17;1.80;;;15.30;99.90;;;;;;5026731;28;20098;-73
2021/06/27 02:21:01;;;;;;;2.58;2.00;;;15.30;99.90;;;;;;5025913;28;20074;-73
2021/06/27 02:23:27;;;;;;;2.53;1.67;;;15.30;99.90;;;;;;5027931;28;20081;-74
2021/06/27 02:25:53;;;;;;;2.60;1.17;;;15.30;99.90;;;;;;5026217;28;20080;-72
2021/06/27 02:28:20;;;;;;;3.17;1.67;;;15.30;99.90;;;;;;5025368;28;20094;-73
2021/06/27 02:30:46;;;;;;;4.00;1.83;;;15.10;99.90;;;;;;5026939;28;20092;-72
2021/06/27 02:33:12;;;;;;;2.80;1.65;;;15.10;99.90;;;;;;5028053;28;20082;-73
2021/06/27 02:35:37;;;;;;;1.70;1.50;;;15.20;99.90;;;;;;5010030;28;21003;-73
2021/06/27 02:38:04;;;;;;;4.00;1.65;;;15.20;99.90;;;;;;5019649;28;20176;-72
2021/06/27 02:40:29;;;;;;;3.55;1.70;;;15.30;99.90;;;;;;5028271;28;20078;-72
2021/06/27 02:42:55;;;;;;;2.10;1.50;;;15.20;99.90;;;;;;5032831;28;20097;-73
2021/06/27 02:45:21;;;;;;;2.58;1.50;;;15.20;99.90;;;;;;5031661;28;20078;-72
2021/06/27 02:47:47;;;;;;;1.88;1.30;;;15.20;99.90;;;;;;5025849;28;20542;-72
2021/06/27 02:50:15;;;;;;;3.33;1.40;;;15.10;99.90;;;;;;5008069;28;20089;-72
2021/06/27 02:52:42;;;;;;;3.00;1.35;;;15.10;99.90;;;;;;5031472;28;20078;-72
2021/06/27 02:55:10;;;;;;;3.25;1.65;;;15.20;99.90;;;;;;5030262;28;20132;-73
2021/06/27 02:57:36;;;;;;;2.15;1.35;;;15.10;99.90;;;;;;5028181;28;21013;-74
2021/06/27 03:00:05;;;;;;;2.05;1.50;;;15.10;99.90;;;;;;5029418;28;20077;-73
2021/06/27 03:02:30;;;;;;;3.63;1.70;;;15.10;99.90;;;;;;5028822;28;20077;-75
2021/06/27 03:04:56;;;;;;;2.03;1.05;;;15.00;99.90;;;;;;5030506;28;20074;-75
2021/06/27 03:07:21;;;;;;;3.10;1.27;;;15.00;99.90;;;;;;5024171;28;20101;-75
2021/06/27 03:09:47;;;;;;;5.22;1.20;;;15.00;99.90;;;;;;5029975;28;20550;-75
2021/06/27 03:12:12;;;;;;;2.80;1.50;;;15.00;99.90;;;;;;5030374;28;20086;-74
2021/06/27 03:14:38;;;;;;;2.33;1.35;;;15.00;99.90;;;;;;5027711;28;20078;-74
2021/06/27 03:17:04;;;;;;;1.35;1.02;;;14.90;99.90;;;;;;5025987;28;20093;-74
2021/06/27 03:19:30;;;;;;;4.28;1.60;;;14.90;99.90;;;;;;5024842;28;20082;-74
2021/06/27 03:21:55;;;;;;;2.15;1.60;;;14.90;99.90;;;;;;5011266;28;20078;-75
2021/06/27 03:24:21;;;;;;;3.60;1.90;;;14.90;99.90;;;;;;5029306;28;20081;-73
2021/06/27 03:26:46;;;;;;;2.80;1.40;;;14.90;99.90;;;;;;5008806;28;20100;-74
2021/06/27 03:29:12;;;;;;;3.17;1.20;;;14.90;99.90;;;;;;5025493;28;20078;-74
2021/06/27 03:31:38;;;;;;;3.58;2.28;;;14.80;99.90;;;;;;5025786;28;20078;-74
2021/06/27 03:34:04;;;;;;;1.50;1.20;;;14.80;99.90;;;;;;5030142;28;20085;-74
2021/06/27 03:36:30;;;;;;;2.70;1.13;;;14.90;99.90;;;;;;5029845;28;20109;-73
2021/06/27 03:39:02;;;;;;;4.10;1.50;;;14.80;99.90;;;;;;5022732;28;20196;-74
2021/06/27 03:41:31;;;;;;;5.20;1.00;;;14.80;99.90;;;;;;5030780;28;20696;-74
2021/06/27 03:43:56;;;;;;;1.77;1.02;;;14.80;99.90;;;;;;5026418;28;20090;-75
2021/06/27 03:46:22;;;;;;;1.35;1.15;;;14.80;99.90;;;;;;5029222;28;20124;-75
2021/06/27 03:48:48;;;;;;;2.42;0.88;;;14.70;99.90;;;;;;5025557;28;20077;-74
2021/06/27 03:51:14;;;;;;;1.65;1.10;;;14.80;99.90;;;;;;5027537;28;20110;-74
2021/06/27 03:53:39;;;;;;;3.72;2.08;;;14.80;99.90;;;;;;5029041;28;20169;-74
2021/06/27 03:56:05;;;;;;;2.53;1.30;;;14.90;99.90;;;;;;5010263;28;20173;-74
2021/06/27 03:58:31;;;;;;;1.95;1.20;;;14.90;99.90;;;;;;5009851;28;20147;-74
2021/06/27 04:00:57;;;;;;;1.95;1.20;;;15.00;99.90;;;;;;5027013;28;20070;-74
2021/06/27 04:03:22;;;;;;;2.67;1.23;;;15.00;99.90;;;;;;5030723;28;20070;-75
2021/06/27 04:05:48;;;;;;;1.80;1.00;;;15.10;99.90;;;;;;5030382;28;20526;-74
2021/06/27 04:08:14;;;;;;;2.42;1.17;;;15.00;99.90;;;;;;5027381;28;20188;-75
2021/06/27 04:10:39;;;;;;;1.60;1.40;;;15.00;99.90;;;;;;5027478;28;20081;-75
2021/06/27 04:13:05;;;;;;;1.40;1.25;;;15.10;99.90;;;;;;5008267;28;20085;-74
2021/06/27 04:15:32;;;;;;;2.20;1.40;;;15.10;99.90;;;;;;5029248;28;20136;-74
2021/06/27 04:17:58;;;;;;;2.78;1.30;;;15.10;99.90;;;;;;5021734;28;20090;-75
2021/06/27 04:20:23;;;;;;;1.67;1.25;;;15.20;99.90;;;;;;5027627;28;20081;-74
2021/06/27 04:22:49;;;;;;;1.80;1.40;;;15.20;99.90;;;;;;5029031;28;20078;-74
2021/06/27 04:25:14;;;;;;;1.60;1.50;;;15.30;99.90;;;;;;5029163;28;20073;-74
2021/06/27 04:27:40;;;;;;;1.10;1.00;;;15.30;99.90;;;;;;5026812;28;20142;-73
2021/06/27 04:30:07;;;;;;;1.77;1.42;;;15.40;99.90;;;;;;5022710;28;20104;-74
2021/06/27 04:32:33;;;;;;;1.40;1.30;;;15.50;99.90;;;;;;5026236;28;20070;-74
2021/06/27 04:34:58;;;;;;;0.93;0.82;;;15.60;99.90;;;;;;5026837;28;20092;-74
2021/06/27 04:37:24;;;;;;;1.20;1.10;;;15.60;99.90;;;;;;5024217;28;20098;-74
2021/06/27 04:39:50;;;;;;;1.50;1.38;;;15.70;99.90;;;;;;5029132;28;20074;-74
2021/06/27 04:42:16;;;;;;;2.05;1.40;;;15.70;99.90;;;;;;5027513;28;20089;-74
2021/06/27 04:44:41;;;;;;;2.05;1.02;;;15.60;99.90;;;;;;5027483;28;20135;-74
2021/06/27 04:47:10;;;;;;;3.28;1.10;;;15.70;99.90;;;;;;5024987;28;20105;-75
2021/06/27 04:49:39;;;;;;;2.75;1.95;;;15.80;99.90;;;;;;5028112;28;20555;-73
2021/06/27 04:52:09;;;;;;;2.17;1.30;;;15.80;99.90;;;;;;5027558;28;20077;-74
2021/06/27 04:54:36;;;;;;;0.90;0.80;;;16.00;99.90;;;;;;5026389;28;20196;-73
2021/06/27 04:57:02;;;;;;;2.45;1.23;;;16.10;99.90;;;;;;5024309;28;20172;-73
2021/06/27 04:59:28;;;;;;;5.07;1.10;;;16.30;99.90;;;;;;5027286;28;20082;-73
2021/06/27 05:01:53;;;;;;;1.77;0.93;;;16.40;99.90;;;;;;5028344;28;20077;-74
2021/06/27 05:04:19;;;;;;;1.30;0.85;;;16.60;99.90;;;;;;5011065;28;20078;-72
2021/06/27 05:06:44;;;;;;;1.80;0.80;;;16.70;99.90;;;;;;5025768;28;20088;-74
2021/06/27 05:09:10;;;;;;;0.80;0.63;;;16.70;99.90;;;;;;5010577;28;20085;-74
2021/06/27 05:11:35;;;;;;;0.80;0.77;;;16.70;99.90;;;;;;5026566;28;20140;-73
2021/06/27 05:14:01;;;;;;;2.25;0.90;;;16.80;99.90;;;;;;5011015;28;20077;-72
2021/06/27 05:16:27;;;;;;;0.90;0.70;;;16.80;99.90;;;;;;5026982;28;20164;-74
2021/06/27 05:18:52;;;;;;;1.60;0.80;;;16.90;99.90;;;;;;5022424;28;20082;-72
2021/06/27 05:21:18;;;;;;;3.20;0.90;;;16.90;99.90;;;;;;5026671;28;20074;-72
2021/06/27 05:23:44;;;;;;;1.13;0.82;;;16.90;99.90;;;;;;5027482;28;20131;-74
2021/06/27 05:26:09;;;;;;;1.13;0.80;;;16.90;99.90;;;;;;5028403;28;20174;-73
2021/06/27 05:28:35;;;;;;;1.38;0.90;;;16.90;99.90;;;;;;5023697;28;20093;-73
2021/06/27 05:31:00;;;;;;;0.98;0.73;;;17.00;99.90;;;;;;5027891;28;20082;-73
2021/06/27 05:33:26;;;;;;;0.65;0.57;;;17.10;99.90;;;;;;5025220;28;20136;-73
2021/06/27 05:35:51;;;;;;;1.58;0.85;;;17.30;99.90;;;;;;5021716;28;20098;-73
2021/06/27 05:38:17;;;;;;;3.10;1.02;;;17.40;99.90;;;;;;5018351;28;20103;-74
2021/06/27 05:40:43;;;;;;;2.40;0.65;;;17.60;99.90;;;;;;5029514;28;20418;-73
2021/06/27 05:43:08;;;;;;;2.67;1.02;;;17.60;99.90;;;;;;5028307;28;20549;-73
2021/06/27 05:45:34;;;;;;;2.00;1.20;;;17.70;99.90;;;;;;5025383;28;20089;-73
2021/06/27 05:47:59;;;;;;;1.70;1.10;;;17.70;99.90;;;;;;5018625;28;20169;-73
2021/06/27 05:50:25;;;;;;;1.75;1.00;;;17.80;99.90;;;;;;5026850;28;20074;-73
2021/06/27 05:52:51;;;;;;;1.27;0.90;;;17.70;99.90;;;;;;5011284;28;20069;-73
2021/06/27 05:55:16;;;;;;;2.60;1.17;;;17.80;99.90;;;;;;5028771;28;20156;-74
2021/06/27 05:57:42;;;;;;;1.42;0.95;;;17.90;99.90;;;;;;5024440;28;20473;-73
2021/06/27 06:00:08;;;;;;;1.35;1.25;;;18.00;99.90;;;;;;5012952;28;20082;-73
2021/06/27 06:02:34;;;;;;;1.85;1.10;;;18.10;99.90;;;;;;5026722;28;20077;-74
2021/06/27 06:04:59;;;;;;;1.92;1.13;;;18.00;99.90;;;;;;5025726;28;20096;-73
2021/06/27 06:07:25;;;;;;;1.33;1.17;;;18.00;99.90;;;;;;5017720;28;20105;-72
2021/06/27 06:09:50;;;;;;;1.23;1.13;;;18.10;99.90;;;;;;5028437;28;20545;-74
2021/06/27 06:12:16;;;;;;;1.33;1.20;;;18.20;99.90;;;;;;5028220;28;20074;-74
2021/06/27 06:14:41;;;;;;;1.40;1.30;;;18.10;99.90;;;;;;5026128;28;20078;-73
2021/06/27 06:17:07;;;;;;;3.03;1.27;;;18.10;99.90;;;;;;5020332;28;20561;-74
2021/06/27 06:19:33;;;;;;;1.48;1.30;;;18.20;99.90;;;;;;5008754;28;20604;-73
2021/06/27 06:21:59;;;;;;;1.40;1.20;;;18.20;99.90;;;;;;5009983;28;20086;-74
2021/06/27 06:24:24;;;;;;;1.35;1.05;;;18.40;99.90;;;;;;5028720;28;20074;-73
2021/06/27 06:26:50;;;;;;;1.75;1.20;;;18.50;99.90;;;;;;5025904;28;20086;-74
2021/06/27 06:29:16;;;;;;;2.75;0.95;;;18.50;99.90;;;;;;4992222;28;20078;-72
2021/06/27 06:31:41;;;;;;;2.13;1.00;;;18.60;99.90;;;;;;5009790;28;20077;-74
2021/06/27 06:34:07;;;;;;;1.00;0.90;;;18.60;99.90;;;;;;5007877;28;20082;-72
2021/06/27 06:36:33;;;;;;;2.78;1.10;;;18.80;99.90;;;;;;4997021;28;20140;-74
2021/06/27 06:38:59;;;;;;;3.00;1.05;;;18.80;99.90;;;;;;5026217;28;20131;-74
2021/06/27 06:41:24;;;;;;;4.15;1.38;;;18.90;99.90;;;;;;5025288;28;20085;-74
2021/06/27 06:43:50;;;;;;;1.63;1.02;;;19.00;99.90;;;;;;5009221;28;20873;-73
2021/06/27 06:46:16;;;;;;;1.40;0.80;;;19.10;99.90;;;;;;5026303;28;20081;-73
2021/06/27 06:48:42;;;;;;;2.20;0.90;;;19.10;99.90;;;;;;5017550;28;20099;-74
2021/06/27 06:51:08;;;;;;;0.70;0.60;;;19.20;99.90;;;;;;5025958;28;20078;-74
2021/06/27 06:53:34;;;;;;;0.60;0.60;;;19.50;99.90;;;;;;5026449;28;20552;-74
2021/06/27 06:55:59;;;;;;;1.45;0.68;;;19.50;99.90;;;;;;5027911;28;20097;-73
2021/06/27 06:58:29;;;;;;;1.05;0.80;;;19.60;99.90;;;;;;5007416;28;20090;-73
2021/06/27 07:00:56;;;;;;;1.00;0.52;;;19.70;99.90;;;;;;5026235;28;20070;-73
2021/06/27 07:03:23;;;;;;;1.27;0.60;;;19.90;99.90;;;;;;5024816;28;20077;-73
2021/06/27 07:05:49;;;;;;;1.75;0.55;;;19.90;99.90;;;;;;5024992;28;20105;-73
2021/06/27 07:08:14;;;;;;;0.85;0.60;;;19.90;99.90;;;;;;5003318;28;20086;-73
2021/06/27 07:10:40;;;;;;;2.95;0.90;;;20.00;99.90;;;;;;5027406;28;20565;-74
2021/06/27 07:13:05;;;;;;;0.95;0.50;;;20.10;99.90;;;;;;5007356;28;20184;-74
2021/06/27 07:15:31;;;;;;;0.50;0.50;;;20.10;99.90;;;;;;5002706;28;20094;-73
2021/06/27 07:17:57;;;;;;;1.73;0.70;;;20.20;99.90;;;;;;5016461;28;20090;-73
2021/06/27 07:20:22;;;;;;;0.82;0.50;;;20.20;99.90;;;;;;5018193;28;20498;-72
2021/06/27 07:22:48;;;;;;;1.08;0.60;;;20.20;99.90;;;;;;5027769;28;20089;-74
2021/06/27 07:25:14;;;;;;;2.38;0.50;;;20.20;99.90;;;;;;5026202;28;20165;-73
2021/06/27 07:27:39;;;;;;;1.00;0.70;;;20.20;99.90;;;;;;5026185;28;20499;-74
2021/06/27 07:30:07;;;;;;;2.45;1.10;;;20.30;99.90;;;;;;5027636;28;20124;-74
2021/06/27 07:32:32;;;;;;;1.05;0.60;;;20.30;99.90;;;;;;5026377;28;20070;-75
2021/06/27 07:34:58;;;;;;;1.25;1.08;;;20.30;99.90;;;;;;4983275;28;20082;-74
2021/06/27 07:37:24;;;;;;;0.80;0.70;;;20.30;99.90;;;;;;5025470;28;20105;-72
2021/06/27 07:39:49;;;;;;;1.95;0.90;;;20.40;99.90;;;;;;5029171;28;20108;-73
2021/06/27 07:42:15;;;;;;;2.05;0.95;;;20.60;99.90;;;;;;5011155;28;20078;-73
2021/06/27 07:44:41;;;;;;;1.20;0.82;;;20.60;99.90;;;;;;5029909;28;20081;-74
2021/06/27 07:47:06;;;;;;;2.13;1.00;;;20.80;99.90;;;;;;5031330;28;20671;-74
2021/06/27 07:49:32;;;;;;;2.63;0.60;;;20.80;99.90;;;;;;5030069;28;20097;-74
2021/06/27 07:51:58;;;;;;;2.28;0.93;;;20.90;99.90;;;;;;5029908;28;20291;-73
2021/06/27 07:54:24;;;;;;;1.35;1.00;;;20.90;99.90;;;;;;5012084;28;20080;-73
2021/06/27 07:56:49;;;;;;;1.33;0.90;;;20.90;99.90;;;;;;5009662;28;20098;-73
2021/06/27 07:59:15;;;;;;;0.95;0.73;;;21.00;99.90;;;;;;4994256;28;20078;-72
2021/06/27 08:01:42;;;;;;;2.05;0.90;;;21.10;99.90;;;;;;5028199;28;20161;-73
2021/06/27 08:04:07;;;;;;;1.60;1.20;;;21.30;99.90;;;;;;5020206;28;20506;-72
2021/06/27 08:06:33;;;;;;;1.75;1.10;;;21.40;99.90;;;;;;4999240;28;20114;-72
2021/06/27 08:08:59;;;;;;;1.20;0.88;;;21.60;99.90;;;;;;5010628;28;20074;-73
2021/06/27 08:11:24;;;;;;;2.28;1.20;;;21.70;99.90;;;;;;5028894;28;20085;-73
2021/06/27 08:13:50;;;;;;;1.40;1.17;;;21.60;99.90;;;;;;5030301;28;20089;-73
2021/06/27 08:16:15;;;;;;;1.48;1.38;;;21.80;99.90;;;;;;5028667;28;20585;-73
2021/06/27 08:18:41;;;;;;;1.38;1.27;;;21.80;99.90;;;;;;5011453;28;20608;-74
2021/06/27 08:21:07;;;;;;;1.70;1.38;;;21.80;99.90;;;;;;5026803;28;20449;-71
2021/06/27 08:23:32;;;;;;;1.80;1.23;;;21.70;99.90;;;;;;5030150;28;20438;-73
2021/06/27 08:25:58;;;;;;;1.60;1.30;;;21.80;99.90;;;;;;5027859;28;20453;-74
2021/06/27 08:28:24;;;;;;;4.03;1.70;;;21.90;99.90;;;;;;5029753;28;20175;-72
2021/06/27 08:30:49;;;;;;;2.22;1.30;;;22.00;99.90;;;;;;5029054;28;20077;-73
2021/06/27 08:33:15;;;;;;;1.95;1.42;;;21.80;99.90;;;;;;5012705;28;20105;-73
2021/06/27 08:35:40;;;;;;;2.15;1.58;;;21.90;99.90;;;;;;5029725;28;20078;-73
2021/06/27 08:38:08;;;;;;;1.17;1.08;;;22.30;99.90;;;;;;5027135;28;20485;-73
2021/06/27 08:40:35;;;;;;;1.35;1.25;;;22.50;99.90;;;;;;5028301;28;20081;-74
2021/06/27 08:43:08;;;;;;;1.52;1.40;;;22.50;99.90;;;;;;5030817;28;20089;-73
2021/06/27 08:45:40;;;;;;;1.48;1.38;;;22.40;99.90;;;;;;5030014;28;20081;-73
2021/06/27 08:48:08;;;;;;;1.80;1.40;;;22.20;99.90;;;;;;5027912;28;20175;-73
2021/06/27 08:50:34;;;;;;;2.25;1.70;;;22.30;99.90;;;;;;5024057;28;20082;-73
2021/06/27 08:53:00;;;;;;;2.00;1.70;;;22.50;99.90;;;;;;5029049;28;20074;-71
2021/06/27 08:55:26;;;;;;;4.38;1.60;;;22.60;99.90;;;;;;5027904;28;20078;-74
2021/06/27 08:57:52;;;;;;;2.90;1.95;;;22.60;99.90;;;;;;5027606;28;20108;-74
2021/06/27 09:00:18;;;;;;;2.58;2.15;;;22.50;99.90;;;;;;5030149;28;20596;-73
2021/06/27 09:02:44;;;;;;;2.20;1.85;;;22.80;99.90;;;;;;5029797;28;20164;-73
2021/06/27 09:05:10;;;;;;;3.17;1.67;;;22.80;99.90;;;;;;5011158;28;20149;-74
2021/06/27 09:07:38;;;;;;;3.15;1.70;;;22.80;99.90;;;;;;5027457;28;20516;-74
2021/06/27 09:10:15;;;;;;;1.58;1.45;;;22.90;99.90;;;;;;5025749;28;20133;-74
2021/06/27 09:12:56;;;;;;;1.52;1.42;;;22.90;99.90;;;;;;5027591;28;20073;-72
2021/06/27 09:15:49;;;;;;;1.48;1.38;;;23.00;99.90;;;;;;5029166;28;20069;-74
2021/06/27 09:18:15;;;;;;;2.03;1.42;;;23.10;99.90;;;;;;5026918;28;20228;-72
2021/06/27 09:20:41;;;;;;;1.73;1.40;;;23.20;99.90;;;;;;5026985;28;20153;-73
2021/06/27 09:23:08;;;;;;;2.05;1.63;;;23.30;99.90;;;;;;5028519;28;20074;-71
2021/06/27 09:25:34;;;;;;;3.05;1.70;;;23.10;99.90;;;;;;5028224;28;20081;-72
2021/06/27 09:28:03;;;;;;;1.55;1.35;;;22.90;99.90;;;;;;5029332;28;20176;-72
2021/06/27 09:30:31;;;;;;;1.92;1.73;;;22.90;99.90;;;;;;5027435;28;20455;-71
2021/06/27 09:33:05;;;;;;;2.33;1.65;;;22.90;99.90;;;;;;5013317;28;20066;-71
2021/06/27 09:35:44;;;;;;;3.65;1.48;;;23.40;99.90;;;;;;5005823;28;20567;-70
2021/06/27 09:38:26;;;;;;;2.03;1.63;;;23.60;99.90;;;;;;5024614;28;20094;-71
2021/06/27 09:41:06;;;;;;;2.97;2.03;;;23.50;99.90;;;;;;5026387;28;20066;-69
2021/06/27 09:43:35;;;;;;;2.47;1.80;;;23.60;99.90;;;;;;5025639;28;20085;-71
2021/06/27 09:46:13;;;;;;;2.50;1.48;;;23.70;99.90;;;;;;5026763;28;20074;-71
2021/06/27 09:48:48;;;;;;;3.00;1.48;;;23.60;99.90;;;;;;5027095;28;20085;-70
2021/06/27 09:51:15;;;;;;;2.55;2.05;;;23.60;99.90;;;;;;5025902;28;20168;-71
2021/06/27 09:53:41;;;;;;;2.25;2.05;;;23.60;99.90;;;;;;5026604;28;20086;-75
2021/06/27 09:56:10;;;;;;;2.50;1.70;;;23.70;99.90;;;;;;5024706;28;20100;-72
2021/06/27 09:58:36;;;;;;;2.22;1.67;;;23.70;99.90;;;;;;5025719;28;20092;-73
2021/06/27 10:01:03;;;;;;;2.55;1.52;;;23.80;99.90;;;;;;5028096;28;20074;-77
2021/06/27 10:03:44;;;;;;;2.25;1.65;;;23.60;99.90;;;;;;5021122;28;20078;-72
2021/06/27 10:06:10;;;;;;;2.35;1.65;;;23.70;99.90;;;;;;5025285;28;20084;-72
2021/06/27 10:08:35;;;;;;;3.08;1.60;;;23.70;99.90;;;;;;5027271;28;20492;-73
2021/06/27 10:11:12;;;;;;;2.63;1.88;;;23.80;99.90;;;;;;5025537;28;20082;-73
2021/06/27 10:13:39;;;;;;;2.85;1.83;;;23.70;99.90;;;;;;5025342;28;20080;-74
2021/06/27 10:16:05;;;;;;;2.83;2.03;;;23.80;99.90;;;;;;5025892;28;20090;-74
2021/06/27 10:18:33;;;;;;;2.35;1.77;;;23.80;99.90;;;;;;5008753;28;20085;-73
2021/06/27 10:20:59;;;;;;;3.55;1.90;;;24.10;99.90;;;;;;5024637;28;20070;-72
2021/06/27 10:23:25;;;;;;;2.65;1.42;;;24.20;99.90;;;;;;5026080;28;20078;-72
2021/06/27 10:25:52;;;;;;;2.50;1.52;;;24.10;99.90;;;;;;5023642;28;20074;-73
2021/06/27 10:28:19;;;;;;;2.90;1.48;;;24.20;99.90;;;;;;5026551;28;20106;-72
2021/06/27 10:30:45;;;;;;;2.13;1.67;;;24.20;99.90;;;;;;5025495;28;20070;-73
2021/06/27 10:33:10;;;;;;;2.25;1.65;;;24.20;99.90;;;;;;5025912;28;20841;-72
2021/06/27 10:35:36;;;;;;;3.50;1.45;;;24.30;99.90;;;;;;4996834;28;20168;-72
2021/06/27 10:38:07;;;;;;;3.00;1.75;;;24.40;99.90;;;;;;5027252;28;20094;-72
2021/06/27 10:40:54;;;;;;;1.88;1.45;;;24.20;99.90;;;;;;5028358;28;20073;-72
2021/06/27 10:43:21;;;;;;;1.58;1.38;;;24.30;99.90;;;;;;5020887;28;20106;-72
2021/06/27 10:45:46;;;;;;;2.13;1.30;;;24.40;99.90;;;;;;5008358;28;20088;-74
2021/06/27 10:48:34;;;;;;;1.30;1.20;;;24.50;99.90;;;;;;5028359;28;20086;-74
2021/06/27 10:51:01;;;;;;;1.67;1.52;;;24.70;99.90;;;;;;5019760;28;20069;-78
2021/06/27 10:53:27;;;;;;;1.45;1.08;;;24.80;99.90;;;;;;5008877;28;20082;-73
2021/06/27 10:55:59;;;;;;;1.67;1.55;;;24.90;99.90;;;;;;5026045;28;20062;-74
2021/06/27 10:58:38;;;;;;;1.33;1.23;;;24.80;99.90;;;;;;5025583;28;20166;-74
2021/06/27 11:01:11;;;;;;;1.40;1.20;;;24.80;99.90;;;;;;5023858;28;20070;-76
2021/06/27 11:03:42;;;;;;;1.67;1.33;;;24.70;99.90;;;;;;4997511;28;20084;-73
2021/06/27 11:06:33;;;;;;;2.45;1.40;;;24.90;99.90;;;;;;5027515;28;20074;-71
2021/06/27 11:09:05;;;;;;;2.20;1.58;;;24.70;99.90;;;;;;5029218;28;20089;-74
2021/06/27 11:11:51;;;;;;;1.20;1.10;;;24.90;99.90;;;;;;5031256;28;20082;-74
2021/06/27 11:14:17;;;;;;;2.90;1.77;;;24.80;99.90;;;;;;5030174;28;20078;-71
2021/06/27 11:16:58;;;;;;;3.17;1.27;;;24.90;99.90;;;;;;5028261;28;20105;-72
2021/06/27 11:19:26;;;;;;;1.63;1.42;;;25.00;99.90;;;;;;5030693;28;20077;-71
2021/06/27 11:22:12;;;;;;;1.52;1.20;;;25.20;99.90;;;;;;5029869;28;20070;-71
2021/06/27 11:24:37;;;;;;;4.03;1.20;;;25.10;99.90;;;;;;5029277;28;20070;-71
2021/06/27 11:27:04;;;;;;;1.98;1.40;;;25.20;99.90;;;;;;5013925;28;20090;-71
2021/06/27 11:29:29;;;;;;;1.23;1.13;;;25.20;99.90;;;;;;5027981;28;20089;-72
2021/06/27 11:32:15;;;;;;;1.83;1.13;;;25.20;99.90;;;;;;5029720;28;20078;-71
2021/06/27 11:34:55;;;;;;;1.35;0.95;;;25.10;99.90;;;;;;5002261;28;20176;-71
2021/06/27 11:37:21;;;;;;;1.20;1.10;;;25.20;99.90;;;;;;5024781;28;20089;-71
2021/06/27 11:39:59;;;;;;;1.20;0.90;;;25.30;99.90;;;;;;5030070;28;20112;-71
2021/06/27 11:42:26;;;;;;;3.53;0.90;;;25.30;99.90;;;;;;5004083;28;21394;-76
2021/06/27 11:45:04;;;;;;;2.53;2.33;;;25.10;99.90;;;;;;5024881;28;20096;-74
2021/06/27 11:47:34;;;;;;;1.83;1.70;;;25.10;99.90;;;;;;5022830;28;20523;-74
2021/06/27 11:50:20;;;;;;;2.55;1.33;;;25.40;99.90;;;;;;5027736;28;20078;-75
2021/06/27 11:52:57;;;;;;;1.20;1.10;;;25.40;99.90;;;;;;5029313;28;20081;-76
2021/06/27 11:55:27;;;;;;;2.40;1.80;;;25.30;99.90;;;;;;5030129;28;20073;-72
2021/06/27 11:57:53;;;;;;;2.55;1.92;;;25.00;99.90;;;;;;5028448;28;20097;-72
2021/06/27 12:00:20;;;;;;;25.38;20.42;;;25.00;99.90;;;;;;5030372;28;20094;-75
2021/06/27 12:02:45;;;;;;;2.60;1.88;;;25.10;99.90;;;;;;5030777;28;20074;-72
2021/06/27 12:05:14;;;;;;;1.60;1.45;;;25.10;99.90;;;;;;5028294;28;20081;-71
2021/06/27 12:07:39;;;;;;;2.00;1.40;;;25.10;99.90;;;;;;5031001;28;20090;-72
2021/06/27 12:10:05;;;;;;;2.80;1.50;;;25.30;99.90;;;;;;5031471;28;20073;-71
2021/06/27 12:12:35;;;;;;;2.13;1.60;;;25.20;99.90;;;;;;5028633;28;20105;-72
2021/06/27 12:15:01;;;;;;;2.58;1.73;;;25.00;99.90;;;;;;5029424;28;20082;-71
2021/06/27 12:17:27;;;;;;;2.75;2.05;;;25.20;99.90;;;;;;5028670;28;20102;-71
2021/06/27 12:19:53;;;;;;;1.92;1.60;;;25.20;99.90;;;;;;5029934;28;20477;-70
2021/06/27 12:22:20;;;;;;;3.03;2.08;;;25.40;99.90;;;;;;5029688;28;20077;-74
2021/06/27 12:24:45;;;;;;;1.95;1.75;;;25.30;99.90;;;;;;5024240;28;20446;-75
2021/06/27 12:27:13;;;;;;;3.53;2.10;;;25.30;99.90;;;;;;5028055;28;20926;-72
2021/06/27 12:29:52;;;;;;;2.00;1.80;;;25.50;99.90;;;;;;5031110;28;20156;-71
2021/06/27 12:32:18;;;;;;;2.13;1.95;;;25.30;99.90;;;;;;5030257;28;20081;-71
2021/06/27 12:34:45;;;;;;;3.08;2.30;;;25.40;99.90;;;;;;5028355;28;20156;-71
2021/06/27 12:37:12;;;;;;;3.42;2.10;;;25.40;99.90;;;;;;5026336;28;20113;-71
2021/06/27 12:39:37;;;;;;;3.58;2.83;;;25.50;99.90;;;;;;5026275;28;20134;-71
2021/06/27 12:42:11;;;;;;;2.72;2.53;;;25.50;99.90;;;;;;5028534;28;20074;-71
2021/06/27 12:44:37;;;;;;;2.38;2.00;;;25.50;99.90;;;;;;5028557;28;20081;-73
2021/06/27 12:47:03;;;;;;;1.80;1.70;;;25.50;99.90;;;;;;5026634;28;20596;-72
2021/06/27 12:49:33;;;;;;;2.58;2.38;;;25.50;99.90;;;;;;5028187;28;20505;-72